Time;durP1;ratioP1;P1;durP2;ratioP2;P2;SDS_P1;SDS_P2;PMS_P1;PMS_P2;Temp;Humidity;BMP_temperature;BMP_pressure;BME280_temperature;BME280_humidity;BME280_pressure;Samples;Min_cycle;Max_cycle;Signal;HPM_P1;HPM_P2
2022/03/13 00:01:24;;;;;;;19.05;17.08;;;;;;;4.59;60.71;98552.63;4154099;28;20231;-45
2022/03/13 00:03:26;;;;;;;20.05;18.25;;;;;;;4.53;60.81;98542.63;4170934;28;20204;-45
2022/03/13 00:05:28;;;;;;;19.10;16.83;;;;;;;4.50;60.71;98551.19;4144399;28;20213;-45
2022/03/13 00:07:31;;;;;;;18.85;17.15;;;;;;;4.47;61.12;98546.19;4145602;28;20287;-45
2022/03/13 00:09:32;;;;;;;18.88;17.10;;;;;;;4.46;60.79;98538.28;4144749;28;20300;-45
2022/03/13 00:11:34;;;;;;;19.02;17.33;;;;;;;4.49;60.93;98536.00;4144067;28;20671;-45
2022/03/13 00:13:48;;;;;;;19.58;17.65;;;;;;;4.48;60.99;98534.31;4142364;28;20741;-45
2022/03/13 00:15:51;;;;;;;21.20;17.08;;;;;;;4.48;61.02;98539.72;4155714;28;20235;-45
2022/03/13 00:17:53;;;;;;;18.73;17.17;;;;;;;4.46;61.16;98539.09;4137558;28;20197;-45
2022/03/13 00:20:02;;;;;;;21.27;19.25;;;;;;;4.40;61.15;98531.00;4142415;28;20247;-45
2022/03/13 00:22:05;;;;;;;18.48;16.60;;;;;;;4.37;60.90;98543.09;4154215;28;20879;-45
2022/03/13 00:24:07;;;;;;;20.83;18.92;;;;;;;4.37;60.91;98548.50;4154338;28;20208;-45
2022/03/13 00:26:09;;;;;;;20.05;17.67;;;;;;;4.35;61.10;98536.22;4169776;28;20323;-45
2022/03/13 00:28:12;;;;;;;22.35;19.98;;;;;;;4.30;61.67;98536.84;4122532;28;20824;-45
2022/03/13 00:30:13;;;;;;;20.00;18.20;;;;;;;4.26;61.63;98537.50;4138870;28;20667;-45
2022/03/13 00:32:16;;;;;;;20.65;16.85;;;;;;;4.24;61.38;98537.69;4154484;28;20232;-45
2022/03/13 00:34:18;;;;;;;20.38;17.65;;;;;;;4.20;61.15;98535.63;4138407;28;20205;-45
2022/03/13 00:36:20;;;;;;;20.15;18.40;;;;;;;4.13;61.94;98532.91;4151925;28;20260;-45
2022/03/13 00:38:25;;;;;;;18.67;16.88;;;;;;;4.08;61.91;98532.69;4103431;28;1176894;-45
2022/03/13 00:40:26;;;;;;;17.83;16.20;;;;;;;4.04;61.42;98531.44;4144579;28;21018;-45
2022/03/13 00:42:28;;;;;;;21.05;17.67;;;;;;;3.99;61.84;98533.94;4154440;28;20255;-45
2022/03/13 00:44:30;;;;;;;20.58;18.27;;;;;;;4.03;61.51;98535.19;4155649;28;20221;-45
2022/03/13 00:46:32;;;;;;;21.08;19.17;;;;;;;3.99;61.75;98544.78;4153303;28;20259;-45
2022/03/13 00:48:34;;;;;;;23.02;20.73;;;;;;;3.95;61.57;98539.97;4139448;28;20215;-44
2022/03/13 00:50:36;;;;;;;21.23;19.02;;;;;;;3.92;61.65;98543.94;4137786;28;20626;-45
2022/03/13 00:52:38;;;;;;;19.63;17.92;;;;;;;3.88;61.75;98537.25;4137579;28;20202;-44
2022/03/13 00:54:40;;;;;;;24.55;19.48;;;;;;;3.90;62.19;98539.75;4140523;28;20213;-45
2022/03/13 00:56:42;;;;;;;20.98;19.20;;;;;;;3.86;61.75;98533.94;4143744;28;20277;-45
2022/03/13 00:58:44;;;;;;;21.52;19.40;;;;;;;3.87;62.23;98541.00;4141907;28;20208;-45
2022/03/13 01:00:45;;;;;;;19.58;17.58;;;;;;;3.89;61.60;98535.41;4143282;28;20210;-45
2022/03/13 01:02:47;;;;;;;22.77;18.65;;;;;;;3.88;61.48;98534.56;4153814;28;20291;-44
2022/03/13 01:04:49;;;;;;;18.65;16.80;;;;;;;3.82;62.28;98532.69;4144181;28;20727;-44
2022/03/13 01:06:51;;;;;;;19.98;18.08;;;;;;;3.78;61.68;98536.00;4144659;28;20209;-45
2022/03/13 01:08:53;;;;;;;18.58;16.65;;;;;;;3.73;61.69;98536.63;4143806;28;20303;-45
2022/03/13 01:10:55;;;;;;;18.58;17.08;;;;;;;3.72;62.09;98543.09;4157042;28;20685;-45
2022/03/13 01:12:57;;;;;;;17.92;16.33;;;;;;;3.73;61.57;98543.94;4152767;28;20247;-45
2022/03/13 01:14:59;;;;;;;18.98;17.17;;;;;;;3.72;61.90;98547.66;4153512;28;20244;-44
2022/03/13 01:17:04;;;;;;;19.27;17.65;;;;;;;3.73;61.83;98541.22;4139239;28;20217;-45
2022/03/13 01:19:09;;;;;;;19.10;17.40;;;;;;;3.67;62.23;98539.34;4151804;28;20229;-44
2022/03/13 01:21:11;;;;;;;18.02;16.42;;;;;;;3.61;61.94;98535.56;4151570;28;20249;-45
2022/03/13 01:23:15;;;;;;;18.73;17.02;;;;;;;3.56;62.26;98531.81;4143298;28;20204;-45
2022/03/13 01:25:17;;;;;;;19.00;17.33;;;;;;;3.51;62.14;98535.16;4154192;28;20227;-45
2022/03/13 01:27:19;;;;;;;18.45;16.75;;;;;;;3.49;62.27;98537.22;4155387;28;20201;-45
2022/03/13 01:29:21;;;;;;;19.98;16.90;;;;;;;3.49;62.46;98522.88;4135885;28;20233;-45
2022/03/13 01:31:28;;;;;;;19.40;17.60;;;;;;;3.48;62.49;98518.50;4136478;28;20682;-45
2022/03/13 01:33:31;;;;;;;20.25;18.45;;;;;;;3.47;62.41;98514.94;4155812;28;20235;-44
2022/03/13 01:35:33;;;;;;;18.20;16.45;;;;;;;3.43;62.52;98515.56;4126631;28;20281;-44
2022/03/13 01:37:36;;;;;;;19.65;17.75;;;;;;;3.39;62.48;98515.16;4155642;28;20636;-45
2022/03/13 01:39:39;;;;;;;17.33;15.55;;;;;;;3.40;62.36;98511.41;4141205;28;20775;-45
2022/03/13 01:41:40;;;;;;;19.60;17.80;;;;;;;3.39;62.12;98515.16;4157360;28;20798;-45
2022/03/13 01:43:43;;;;;;;17.17;15.43;;;;;;;3.40;62.32;98500.59;4143577;28;20240;-45
2022/03/13 01:45:47;;;;;;;17.98;16.30;;;;;;;3.39;62.46;98501.63;4151453;28;20291;-45
2022/03/13 01:47:49;;;;;;;17.35;15.85;;;;;;;3.37;62.72;98498.31;4137133;28;20845;-44
2022/03/13 01:49:51;;;;;;;16.88;15.13;;;;;;;3.32;62.25;98497.22;4153220;28;20320;-45
2022/03/13 01:51:53;;;;;;;18.30;16.20;;;;;;;3.27;62.62;98495.16;4137481;28;20292;-44
2022/03/13 01:53:57;;;;;;;16.92;15.40;;;;;;;3.23;63.07;98493.06;4152990;28;20217;-44
2022/03/13 01:55:59;;;;;;;17.25;15.85;;;;;;;3.22;63.07;98502.22;4135979;28;20206;-44
2022/03/13 01:58:01;;;;;;;19.63;16.35;;;;;;;3.19;62.92;98498.03;4149148;28;20239;-45
2022/03/13 02:00:04;;;;;;;19.02;16.52;;;;;;;3.17;62.60;98500.13;4129244;28;20720;-45
2022/03/13 02:02:06;;;;;;;16.80;15.18;;;;;;;3.15;63.26;98502.19;4142084;28;20240;-44
2022/03/13 02:04:09;;;;;;;17.80;15.70;;;;;;;3.14;63.05;98505.09;4137851;28;20209;-45
2022/03/13 02:06:11;;;;;;;17.00;15.15;;;;;;;3.07;63.36;98502.38;4139371;28;20237;-45
2022/03/13 02:08:19;;;;;;;16.98;15.43;;;;;;;3.02;63.61;98504.84;4122644;28;20648;-44
2022/03/13 02:10:21;;;;;;;18.92;17.15;;;;;;;3.01;63.35;98499.66;4143423;28;21147;-44
2022/03/13 02:12:24;;;;;;;18.08;16.48;;;;;;;2.97;63.59;98504.63;4145049;28;20213;-46
2022/03/13 02:14:26;;;;;;;17.33;14.80;;;;;;;2.91;63.60;98502.75;4138101;28;20263;-44
2022/03/13 02:16:29;;;;;;;17.48;16.05;;;;;;;2.90;63.76;98503.78;4169538;28;20192;-45
2022/03/13 02:18:31;;;;;;;17.45;15.95;;;;;;;2.89;63.14;98502.13;4144324;28;20712;-44
2022/03/13 02:20:40;;;;;;;16.50;15.13;;;;;;;2.84;63.89;98498.34;4156504;28;20228;-45
2022/03/13 02:22:45;;;;;;;18.08;16.27;;;;;;;2.81;63.68;98499.56;4143305;28;20212;-45
2022/03/13 02:24:51;;;;;;;17.08;15.57;;;;;;;2.77;63.40;98492.91;4139040;28;20210;-44
2022/03/13 02:27:01;;;;;;;17.38;15.93;;;;;;;2.77;63.28;98498.31;4143465;28;20211;-45
2022/03/13 02:29:03;;;;;;;18.50;16.50;;;;;;;2.77;63.76;98492.91;4138229;28;20264;-44
2022/03/13 02:31:11;;;;;;;18.20;14.85;;;;;;;2.77;63.65;98487.53;4136537;28;20214;-45
2022/03/13 02:33:17;;;;;;;17.88;16.33;;;;;;;2.77;63.32;98492.91;4138347;28;20207;-45
2022/03/13 02:35:20;;;;;;;17.02;15.30;;;;;;;2.77;63.45;98492.91;4138265;28;20689;-44
2022/03/13 02:37:42;;;;;;;16.40;14.88;;;;;;;2.77;63.75;98492.06;4142329;28;20261;-45
2022/03/13 02:39:48;;;;;;;15.52;14.07;;;;;;;2.72;63.90;98481.88;4155110;28;20240;-44
2022/03/13 02:41:50;;;;;;;15.65;14.30;;;;;;;2.70;63.60;98481.25;4141401;28;20241;-45
2022/03/13 02:43:53;;;;;;;14.82;13.52;;;;;;;2.73;63.57;98486.25;4151136;28;20208;-44
2022/03/13 02:45:55;;;;;;;20.85;13.60;;;;;;;2.74;63.77;98482.50;4154389;28;20727;-44
2022/03/13 02:47:59;;;;;;;15.73;14.32;;;;;;;2.76;63.58;98479.59;4127380;28;20324;-44
2022/03/13 02:50:00;;;;;;;16.95;14.43;;;;;;;2.63;64.00;98474.16;4151582;28;20226;-44
2022/03/13 02:52:05;;;;;;;14.98;13.52;;;;;;;2.55;64.06;98472.44;4170418;28;20663;-44
2022/03/13 02:54:06;;;;;;;17.13;15.35;;;;;;;2.54;64.37;98470.78;4155752;28;20250;-44
2022/03/13 02:56:08;;;;;;;14.43;13.18;;;;;;;2.54;63.97;98469.97;4137861;28;20230;-44
2022/03/13 02:58:10;;;;;;;14.45;13.15;;;;;;;2.51;64.78;98471.19;4142128;28;20206;-44
2022/03/13 03:00:13;;;;;;;15.73;13.82;;;;;;;2.55;64.36;98464.34;4143687;28;20232;-44
2022/03/13 03:02:15;;;;;;;15.27;13.73;;;;;;;2.45;64.39;98473.84;4137921;28;20201;-44
2022/03/13 03:04:22;;;;;;;14.77;13.07;;;;;;;2.44;64.33;98462.22;4144168;28;20229;-44
2022/03/13 03:06:24;;;;;;;14.13;12.43;;;;;;;2.44;64.34;98462.22;4134636;28;20241;-44
2022/03/13 03:08:26;;;;;;;14.40;13.30;;;;;;;2.43;63.91;98460.56;4152712;28;21017;-45
2022/03/13 03:10:27;;;;;;;14.50;13.10;;;;;;;2.44;63.92;98462.22;4154060;28;20236;-44
2022/03/13 03:12:29;;;;;;;13.88;12.40;;;;;;;2.41;63.59;98454.50;4142365;28;20566;-44
2022/03/13 03:14:31;;;;;;;15.07;13.75;;;;;;;2.41;64.60;98448.28;4153899;28;20872;-44
2022/03/13 03:16:33;;;;;;;14.90;13.30;;;;;;;2.39;63.70;98456.59;4170271;28;20254;-44
2022/03/13 03:18:35;;;;;;;15.77;14.48;;;;;;;2.41;63.60;98459.09;4150227;28;20212;-44
2022/03/13 03:20:37;;;;;;;13.88;12.45;;;;;;;2.39;63.57;98453.88;4166292;28;20231;-44
2022/03/13 03:22:40;;;;;;;16.85;12.70;;;;;;;2.43;63.71;98462.41;4158339;28;20818;-45
2022/03/13 03:24:41;;;;;;;13.02;11.93;;;;;;;2.45;63.70;98463.88;4172850;28;20282;-44
2022/03/13 03:26:43;;;;;;;13.82;12.50;;;;;;;2.46;63.30;98457.44;4158098;28;20292;-44
2022/03/13 03:28:45;;;;;;;14.52;13.23;;;;;;;2.50;63.65;98461.44;4155478;28;20239;-44
2022/03/13 03:30:47;;;;;;;16.08;13.60;;;;;;;2.49;63.61;98454.38;4140247;28;20681;-44
2022/03/13 03:32:50;;;;;;;17.35;15.88;;;;;;;2.48;63.26;98455.38;4155250;28;20215;-44
2022/03/13 03:34:52;;;;;;;16.70;15.23;;;;;;;2.43;63.61;98457.88;4145571;28;20312;-44
2022/03/13 03:36:58;;;;;;;16.77;15.02;;;;;;;2.36;63.82;98456.16;4139940;28;20206;-44
2022/03/13 03:39:00;;;;;;;16.38;14.88;;;;;;;2.36;63.83;98451.59;4134749;28;20226;-45
2022/03/13 03:41:02;;;;;;;16.13;14.60;;;;;;;2.34;64.23;98459.03;4170872;28;20208;-44
2022/03/13 03:43:05;;;;;;;17.63;15.60;;;;;;;2.33;64.16;98465.47;4169189;28;20247;-44
2022/03/13 03:45:08;;;;;;;16.27;14.88;;;;;;;2.36;63.90;98478.59;4156187;28;20209;-44
2022/03/13 03:47:09;;;;;;;15.57;13.73;;;;;;;2.39;63.65;98480.88;4141372;28;20233;-44
2022/03/13 03:49:11;;;;;;;15.40;14.10;;;;;;;2.37;64.08;98469.47;4139780;28;20229;-44
2022/03/13 03:51:12;;;;;;;14.98;13.68;;;;;;;2.27;64.59;98474.38;4148678;28;20762;-44
2022/03/13 03:53:14;;;;;;;14.50;13.23;;;;;;;2.21;64.60;98467.06;4173426;28;20211;-44
2022/03/13 03:55:16;;;;;;;16.33;14.77;;;;;;;2.22;64.38;98468.72;4141124;28;20296;-44
2022/03/13 03:57:19;;;;;;;17.42;14.63;;;;;;;2.21;64.28;98475.16;4162945;28;20745;-44
2022/03/13 03:59:20;;;;;;;14.35;13.15;;;;;;;2.22;64.01;98476.00;4138287;28;20229;-44
2022/03/13 04:01:22;;;;;;;16.77;14.13;;;;;;;2.20;63.93;98468.09;4140543;28;20229;-44
2022/03/13 04:03:24;;;;;;;15.05;13.65;;;;;;;2.18;64.07;98464.78;4143683;28;20213;-44
2022/03/13 04:05:26;;;;;;;16.40;12.05;;;;;;;2.18;63.82;98466.63;4147418;28;20585;-44
2022/03/13 04:07:27;;;;;;;14.90;13.70;;;;;;;2.20;64.52;98473.50;4137994;28;20288;-44
2022/03/13 04:09:29;;;;;;;14.32;13.13;;;;;;;2.18;64.36;98474.72;4144704;28;20624;-44
2022/03/13 04:11:31;;;;;;;13.73;12.57;;;;;;;2.20;64.15;98473.50;4144772;28;20277;-44
2022/03/13 04:13:38;;;;;;;15.15;13.75;;;;;;;2.17;64.30;98463.13;4140486;28;20700;-44
2022/03/13 04:15:40;;;;;;;14.30;13.02;;;;;;;2.09;64.66;98467.84;4144237;28;20203;-45
2022/03/13 04:17:44;;;;;;;13.20;12.00;;;;;;;2.11;64.60;98463.91;4140442;28;20308;-44
2022/03/13 04:19:46;;;;;;;14.32;13.02;;;;;;;2.11;64.48;98458.50;4143598;28;20233;-44
2022/03/13 04:21:48;;;;;;;14.93;13.55;;;;;;;2.11;64.38;98457.66;4144451;28;20243;-44
2022/03/13 04:23:50;;;;;;;14.30;12.95;;;;;;;2.07;64.65;98462.63;4154072;28;20231;-45
2022/03/13 04:25:51;;;;;;;12.63;11.38;;;;;;;2.03;64.41;98461.38;4144177;28;20212;-45
2022/03/13 04:27:54;;;;;;;13.18;11.88;;;;;;;1.99;64.42;98465.50;4135305;28;20240;-44
2022/03/13 04:29:56;;;;;;;13.23;12.02;;;;;;;1.98;64.19;98473.78;4138679;28;21001;-44
2022/03/13 04:31:57;;;;;;;14.45;13.05;;;;;;;1.94;64.66;98473.31;4153051;28;20308;-44
2022/03/13 04:33:59;;;;;;;15.13;12.13;;;;;;;1.91;64.61;98478.28;4134735;28;20227;-44
2022/03/13 04:36:05;;;;;;;20.20;13.93;;;;;;;1.93;64.51;98482.47;4139530;28;20212;-45
2022/03/13 04:38:06;;;;;;;13.32;11.85;;;;;;;1.96;64.29;98479.38;4156966;28;20216;-44
2022/03/13 04:40:10;;;;;;;15.77;13.80;;;;;;;1.95;64.05;98490.38;4154564;28;20227;-44
2022/03/13 04:42:11;;;;;;;15.18;13.77;;;;;;;1.90;64.65;98488.25;4144471;28;20206;-44
2022/03/13 04:44:14;;;;;;;15.52;14.13;;;;;;;1.90;64.30;98482.00;4168927;28;20212;-44
2022/03/13 04:46:16;;;;;;;14.82;13.45;;;;;;;1.88;64.44;98479.50;4145077;28;20209;-44
2022/03/13 04:48:18;;;;;;;16.85;13.38;;;;;;;1.78;65.24;98484.44;4143271;28;20209;-44
2022/03/13 04:50:23;;;;;;;18.15;14.02;;;;;;;1.84;65.12;98490.88;4140671;28;20628;-45
2022/03/13 04:52:26;;;;;;;13.95;12.68;;;;;;;1.82;64.76;98491.06;4144301;28;20241;-45
2022/03/13 04:54:27;;;;;;;14.45;13.10;;;;;;;1.83;64.42;98481.97;4145715;28;20237;-44
2022/03/13 04:56:29;;;;;;;15.88;14.38;;;;;;;1.82;64.43;98488.38;4154440;28;20244;-45
2022/03/13 04:58:31;;;;;;;14.38;13.15;;;;;;;1.82;64.35;98499.16;4138597;28;20193;-44
2022/03/13 05:00:34;;;;;;;15.82;14.50;;;;;;;1.81;64.90;98494.81;4139461;28;22784;-45
2022/03/13 05:02:37;;;;;;;15.23;13.88;;;;;;;1.82;65.14;98493.78;4155995;28;20280;-45
2022/03/13 05:04:43;;;;;;;16.25;14.65;;;;;;;1.85;65.23;98498.78;4130233;28;20210;-44
2022/03/13 05:06:45;;;;;;;14.68;13.40;;;;;;;1.87;64.97;98509.41;4139386;28;20213;-45
2022/03/13 05:08:49;;;;;;;15.47;13.93;;;;;;;1.89;65.27;98505.44;4153888;28;20236;-45
2022/03/13 05:10:51;;;;;;;14.68;13.43;;;;;;;1.87;65.25;98499.44;4139776;28;20241;-45
2022/03/13 05:12:52;;;;;;;15.27;13.88;;;;;;;1.84;65.37;98494.44;4139670;28;20251;-45
2022/03/13 05:14:54;;;;;;;15.30;13.82;;;;;;;1.82;66.00;98485.69;4147617;28;20221;-44
2022/03/13 05:16:56;;;;;;;19.20;15.52;;;;;;;1.69;66.20;98490.16;4139845;28;20213;-44
2022/03/13 05:18:57;;;;;;;15.48;14.00;;;;;;;1.62;66.74;98484.69;4137028;28;20284;-45
2022/03/13 05:20:59;;;;;;;14.93;13.53;;;;;;;1.61;66.70;98503.78;4138501;28;20952;-44
2022/03/13 05:23:05;;;;;;;15.13;13.77;;;;;;;1.69;66.06;98517.13;4153650;28;20309;-45
2022/03/13 05:25:07;;;;;;;15.65;14.18;;;;;;;1.76;66.07;98524.25;4143883;28;20210;-45
2022/03/13 05:27:08;;;;;;;17.13;13.88;;;;;;;1.90;65.90;98515.22;4153852;28;20208;-45
2022/03/13 05:29:11;;;;;;;16.05;14.60;;;;;;;1.92;65.65;98510.47;4136898;28;20270;-45
2022/03/13 05:31:12;;;;;;;15.07;13.52;;;;;;;1.95;65.76;98512.75;4140273;28;20308;-45
2022/03/13 05:33:14;;;;;;;17.67;15.88;;;;;;;1.98;65.86;98512.38;4144441;28;20213;-45
2022/03/13 05:35:17;;;;;;;19.52;15.25;;;;;;;1.97;65.59;98516.13;4143753;28;20210;-45
2022/03/13 05:37:19;;;;;;;16.83;15.30;;;;;;;1.88;66.62;98514.56;4144874;28;20229;-45
2022/03/13 05:39:21;;;;;;;15.85;14.38;;;;;;;1.93;66.04;98517.53;4142426;28;20767;-45
2022/03/13 05:41:22;;;;;;;15.77;14.27;;;;;;;1.87;66.75;98512.09;4144964;28;20248;-45
2022/03/13 05:43:25;;;;;;;15.97;14.47;;;;;;;1.94;66.19;98516.50;4141252;28;20213;-44
2022/03/13 05:45:28;;;;;;;15.70;14.30;;;;;;;1.98;66.48;98504.28;4125397;28;20210;-45
2022/03/13 05:47:30;;;;;;;17.55;12.63;;;;;;;2.02;66.02;98512.81;4171826;28;20577;-46
2022/03/13 05:49:31;;;;;;;14.02;12.65;;;;;;;2.05;65.94;98517.81;4143610;28;20689;-45
2022/03/13 05:51:35;;;;;;;16.33;14.80;;;;;;;2.10;65.64;98532.41;4153957;28;20318;-45
2022/03/13 05:53:37;;;;;;;15.63;13.45;;;;;;;2.16;65.45;98538.88;4144593;28;20678;-44
2022/03/13 05:55:39;;;;;;;15.65;14.15;;;;;;;2.25;65.30;98541.22;4143612;28;20370;-44
2022/03/13 05:57:41;;;;;;;13.70;12.40;;;;;;;2.31;64.77;98534.19;4142506;28;20711;-45
2022/03/13 05:59:43;;;;;;;18.75;16.88;;;;;;;2.34;65.65;98534.63;4156925;28;20642;-44
2022/03/13 06:01:45;;;;;;;18.05;16.45;;;;;;;2.32;65.56;98536.69;4143606;28;20217;-45
2022/03/13 06:03:47;;;;;;;17.50;15.75;;;;;;;2.40;65.58;98543.81;4139176;28;20217;-44
2022/03/13 06:05:49;;;;;;;17.55;15.90;;;;;;;2.44;65.14;98545.94;4169813;28;20273;-44
2022/03/13 06:07:51;;;;;;;16.33;14.90;;;;;;;2.54;64.25;98543.69;4138073;28;20213;-45
2022/03/13 06:10:02;;;;;;;17.95;16.35;;;;;;;2.56;64.47;98538.94;4154197;28;20233;-44
2022/03/13 06:12:05;;;;;;;20.15;13.35;;;;;;;2.60;64.60;98542.06;4142168;28;20209;-44
2022/03/13 06:14:06;;;;;;;15.40;13.90;;;;;;;2.67;64.77;98529.44;4144097;28;21122;-44
2022/03/13 06:16:08;;;;;;;15.68;14.10;;;;;;;2.67;64.95;98530.25;4153764;28;20209;-44
2022/03/13 06:18:11;;;;;;;15.80;14.38;;;;;;;2.72;64.52;98537.75;4139457;28;20666;-44
2022/03/13 06:20:15;;;;;;;16.80;13.63;;;;;;;2.70;65.15;98529.88;4138406;28;20343;-44
2022/03/13 06:22:18;;;;;;;16.55;14.98;;;;;;;2.70;65.48;98535.28;4137238;28;20655;-44
2022/03/13 06:24:19;;;;;;;15.30;13.85;;;;;;;2.78;65.15;98537.81;4140092;28;20225;-44
2022/03/13 06:26:22;;;;;;;16.05;14.52;;;;;;;2.86;64.66;98534.13;4138569;28;20210;-45
2022/03/13 06:28:23;;;;;;;17.35;15.70;;;;;;;2.85;64.60;98533.25;4155871;28;20220;-44
2022/03/13 06:30:25;;;;;;;15.10;13.75;;;;;;;2.93;65.00;98535.78;4140896;28;20260;-45
2022/03/13 06:32:28;;;;;;;16.98;15.32;;;;;;;2.93;65.26;98532.28;4152443;28;20281;-45
2022/03/13 06:34:30;;;;;;;16.08;14.60;;;;;;;2.97;65.33;98520.84;4139739;28;20236;-45
2022/03/13 06:36:32;;;;;;;14.93;13.52;;;;;;;3.00;65.69;98514.22;4143996;28;20669;-45
2022/03/13 06:38:33;;;;;;;13.95;12.80;;;;;;;2.97;65.98;98528.97;4139684;28;20662;-45
2022/03/13 06:40:35;;;;;;;14.55;13.02;;;;;;;3.03;65.60;98522.75;4127029;28;20230;-44
2022/03/13 06:42:38;;;;;;;15.57;14.13;;;;;;;3.05;65.31;98515.25;4135351;28;20546;-45
2022/03/13 06:44:40;;;;;;;14.75;13.35;;;;;;;3.08;66.03;98517.53;4136792;28;20574;-44
2022/03/13 06:46:42;;;;;;;15.25;13.82;;;;;;;2.98;66.20;98517.09;4155556;28;20207;-44
2022/03/13 06:48:43;;;;;;;16.88;15.38;;;;;;;3.28;65.88;98518.44;4154722;28;20233;-44
2022/03/13 06:50:45;;;;;;;16.42;14.93;;;;;;;3.78;65.34;98526.03;4153271;28;20747;-45
2022/03/13 06:52:48;;;;;;;19.40;14.40;;;;;;;4.00;64.40;98524.78;4142115;28;20229;-44
2022/03/13 06:54:50;;;;;;;15.95;14.57;;;;;;;4.15;63.29;98522.69;4154252;28;20201;-44
2022/03/13 06:56:55;;;;;;;17.05;15.40;;;;;;;4.06;63.64;98529.34;4154376;28;20242;-45
2022/03/13 06:59:03;;;;;;;15.32;13.95;;;;;;;4.12;63.49;98523.13;4139876;28;20275;-44
2022/03/13 07:01:07;;;;;;;14.88;13.68;;;;;;;4.15;63.02;98522.69;4142132;28;20244;-44
2022/03/13 07:03:09;;;;;;;16.70;15.32;;;;;;;4.27;64.08;98526.41;4152719;28;21240;-44
2022/03/13 07:05:11;;;;;;;17.00;15.50;;;;;;;4.36;63.87;98530.59;4144653;28;20209;-45
2022/03/13 07:07:13;;;;;;;14.57;13.40;;;;;;;4.43;63.78;98536.00;4130507;28;20268;-45
2022/03/13 07:09:15;;;;;;;18.35;16.05;;;;;;;4.76;63.72;98524.03;4154155;28;20232;-45
2022/03/13 07:11:17;;;;;;;16.83;15.32;;;;;;;5.15;63.01;98527.44;4146710;28;20736;-45
2022/03/13 07:13:19;;;;;;;15.80;14.40;;;;;;;4.97;61.64;98523.75;4145154;28;20788;-44
2022/03/13 07:15:22;;;;;;;17.52;15.93;;;;;;;4.76;61.27;98528.63;4140460;28;20210;-44
2022/03/13 07:17:24;;;;;;;15.40;13.85;;;;;;;4.65;61.35;98550.94;4151305;28;20209;-45
2022/03/13 07:19:26;;;;;;;15.82;14.43;;;;;;;4.44;61.50;98554.75;4169262;28;20290;-45
2022/03/13 07:21:28;;;;;;;14.98;13.60;;;;;;;4.13;62.64;98551.84;4145473;28;20244;-45
2022/03/13 07:23:29;;;;;;;14.55;13.25;;;;;;;4.11;62.80;98540.41;4155405;28;20201;-44
2022/03/13 07:25:31;;;;;;;14.55;13.35;;;;;;;4.11;62.58;98547.69;4143398;28;20209;-44
2022/03/13 07:27:33;;;;;;;14.98;13.48;;;;;;;4.12;62.65;98539.34;4134714;28;20633;-45
2022/03/13 07:29:35;;;;;;;15.68;14.07;;;;;;;4.08;62.14;98551.63;4149972;28;20229;-44
2022/03/13 07:31:36;;;;;;;15.38;13.88;;;;;;;4.13;62.32;98551.84;4138223;28;20232;-44
2022/03/13 07:33:38;;;;;;;15.40;14.00;;;;;;;4.13;62.97;98535.59;4156153;28;20287;-45
2022/03/13 07:35:40;;;;;;;16.90;15.50;;;;;;;4.03;63.19;98542.47;4155071;28;20918;-44
2022/03/13 07:37:43;;;;;;;17.55;16.05;;;;;;;4.15;62.86;98532.69;4157076;28;20770;-45
2022/03/13 07:39:47;;;;;;;14.00;12.90;;;;;;;4.21;62.44;98538.09;4142997;28;20284;-44
2022/03/13 07:41:49;;;;;;;16.27;14.80;;;;;;;4.30;62.45;98542.28;4138639;28;20220;-45
2022/03/13 07:43:50;;;;;;;14.25;12.95;;;;;;;4.45;63.08;98551.00;4140406;28;20225;-45
2022/03/13 07:45:55;;;;;;;17.55;16.10;;;;;;;4.53;62.53;98548.06;4140619;28;20301;-44
2022/03/13 07:47:59;;;;;;;15.38;14.07;;;;;;;4.86;62.07;98550.72;4123321;28;20202;-44
2022/03/13 07:50:04;;;;;;;16.10;14.65;;;;;;;5.09;61.16;98543.75;4125840;28;20240;-44
2022/03/13 07:52:07;;;;;;;15.45;14.05;;;;;;;5.24;60.35;98536.16;4141816;28;20264;-45
2022/03/13 07:54:11;;;;;;;15.77;14.20;;;;;;;5.60;60.19;98536.38;4145724;28;20221;-44
2022/03/13 07:56:13;;;;;;;15.98;14.13;;;;;;;5.85;59.71;98540.84;4142569;28;20229;-45
2022/03/13 07:58:15;;;;;;;16.30;14.88;;;;;;;6.23;58.86;98538.84;4157817;28;20204;-44
2022/03/13 08:00:18;;;;;;;16.30;14.65;;;;;;;6.35;57.70;98533.53;4160178;28;21306;-44
2022/03/13 08:02:20;;;;;;;14.13;12.93;;;;;;;6.18;58.38;98537.84;4146765;28;20221;-45
2022/03/13 08:04:26;;;;;;;15.40;14.10;;;;;;;5.72;57.92;98529.19;4155646;28;20292;-45
2022/03/13 08:06:34;;;;;;;13.38;12.02;;;;;;;5.70;56.89;98521.25;4145327;28;20280;-45
2022/03/13 08:08:36;;;;;;;14.52;13.23;;;;;;;5.39;57.27;98517.72;4128966;28;20210;-45
2022/03/13 08:10:38;;;;;;;14.60;13.30;;;;;;;5.76;57.71;98519.56;4160598;28;20279;-45
2022/03/13 08:12:50;;;;;;;15.43;14.07;;;;;;;6.13;57.24;98515.97;4157252;28;20251;-45
2022/03/13 08:14:54;;;;;;;18.13;14.85;;;;;;;6.83;56.88;98518.19;4140749;28;20284;-45
2022/03/13 08:16:56;;;;;;;18.17;16.10;;;;;;;7.43;55.37;98519.97;4140131;28;20209;-45
2022/03/13 08:18:59;;;;;;;14.95;13.75;;;;;;;8.06;54.24;98521.94;4145097;28;20234;-45
2022/03/13 08:21:13;;;;;;;15.60;14.18;;;;;;;9.08;50.40;98521.41;4157148;28;20228;-44
2022/03/13 08:23:16;;;;;;;15.23;13.93;;;;;;;9.36;51.37;98530.44;4140276;28;20204;-45
2022/03/13 08:25:19;;;;;;;15.20;14.10;;;;;;;9.94;50.06;98528.31;4144455;28;20291;-44
2022/03/13 08:27:21;;;;;;;14.95;13.65;;;;;;;9.91;48.42;98520.63;4174474;28;20244;-44
2022/03/13 08:29:23;;;;;;;15.40;13.77;;;;;;;9.44;48.39;98521.06;4141453;28;20233;-44
2022/03/13 08:31:25;;;;;;;13.65;12.50;;;;;;;9.39;49.00;98529.97;4144959;28;20210;-44
2022/03/13 08:33:26;;;;;;;14.10;12.90;;;;;;;8.92;49.15;98527.56;4140664;28;20255;-44
2022/03/13 08:35:44;;;;;;;13.93;12.68;;;;;;;8.51;50.57;98533.16;4159945;28;20212;-45
2022/03/13 08:37:46;;;;;;;13.93;12.52;;;;;;;8.73;49.43;98524.16;4141703;28;20683;-45
2022/03/13 08:39:58;;;;;;;14.20;12.98;;;;;;;8.61;50.16;98525.25;4144630;28;20225;-45
2022/03/13 08:42:05;;;;;;;14.52;13.32;;;;;;;8.70;50.42;98529.25;4139008;28;20227;-45
2022/03/13 08:44:08;;;;;;;13.57;12.48;;;;;;;8.69;50.31;98530.34;4123722;28;20202;-42
2022/03/13 08:46:17;;;;;;;13.57;12.35;;;;;;;8.88;49.64;98532.69;4141561;28;20201;-43
2022/03/13 08:48:19;;;;;;;14.95;13.45;;;;;;;9.43;49.81;98524.84;4156949;28;20208;-44
2022/03/13 08:50:23;;;;;;;21.85;12.93;;;;;;;9.60;49.04;98532.03;4156036;28;20228;-44
2022/03/13 08:52:25;;;;;;;14.68;13.45;;;;;;;9.76;48.82;98519.50;4147107;28;20201;-44
2022/03/13 08:54:27;;;;;;;14.95;13.60;;;;;;;9.50;48.61;98517.34;4159475;28;20647;-44
2022/03/13 08:56:29;;;;;;;15.05;13.65;;;;;;;9.47;48.89;98520.56;4145125;28;20218;-45
2022/03/13 08:58:31;;;;;;;13.73;12.52;;;;;;;9.82;49.22;98518.53;4141112;28;20263;-42
2022/03/13 09:00:35;;;;;;;15.23;13.77;;;;;;;9.91;48.34;98515.16;4121318;28;20226;-44
2022/03/13 09:02:38;;;;;;;14.48;12.88;;;;;;;9.92;48.37;98515.97;4169869;28;20208;-44
2022/03/13 09:04:41;;;;;;;14.60;13.30;;;;;;;10.13;48.03;98516.13;4142058;28;20210;-44
2022/03/13 09:06:43;;;;;;;14.38;12.77;;;;;;;10.06;47.68;98522.81;4153327;28;20258;-44
2022/03/13 09:08:44;;;;;;;14.27;12.98;;;;;;;9.81;48.42;98522.34;4137753;28;20231;-44
2022/03/13 09:10:46;;;;;;;15.15;13.57;;;;;;;9.86;47.67;98520.50;4141715;28;20316;-44
2022/03/13 09:12:48;;;;;;;14.55;13.25;;;;;;;9.83;48.20;98520.19;4157156;28;20890;-44
2022/03/13 09:14:50;;;;;;;14.70;13.30;;;;;;;10.05;47.66;98519.25;4170656;28;20212;-44
2022/03/13 09:16:52;;;;;;;15.10;13.35;;;;;;;10.25;47.50;98514.13;4154410;28;20296;-44
2022/03/13 09:18:53;;;;;;;13.40;12.32;;;;;;;10.36;47.32;98523.34;4137295;28;20213;-44
2022/03/13 09:20:59;;;;;;;14.30;13.00;;;;;;;10.77;45.94;98520.16;4140164;28;20224;-44
2022/03/13 09:23:01;;;;;;;13.68;12.52;;;;;;;10.64;45.85;98523.25;4142844;28;20636;-44
2022/03/13 09:25:03;;;;;;;12.32;11.27;;;;;;;10.98;46.03;98512.00;4152308;28;20213;-44
2022/03/13 09:27:04;;;;;;;15.27;13.75;;;;;;;10.73;44.50;98521.72;4143101;28;20244;-44
2022/03/13 09:29:07;;;;;;;14.07;12.63;;;;;;;10.50;44.44;98517.28;4142940;28;20238;-44
2022/03/13 09:31:10;;;;;;;14.18;12.80;;;;;;;11.36;45.33;98523.72;4143062;28;20312;-44